Time;durP1;ratioP1;P1;durP2;ratioP2;P2;SDS_P1;SDS_P2;PMS_P1;PMS_P2;Temp;Humidity;BMP_temperature;BMP_pressure;BME280_temperature;BME280_humidity;BME280_pressure;Samples;Min_cycle;Max_cycle;Signal;HPM_P1;HPM_P2
2022/05/30 00:01:22;;;;;;;6.07;1.08;;;9.80;99.90;;;;;;4976383;28;20042;-78
2022/05/30 00:03:49;;;;;;;5.22;1.10;;;9.80;99.90;;;;;;4993049;28;20421;-80
2022/05/30 00:06:18;;;;;;;9.60;1.15;;;9.80;99.90;;;;;;4959777;28;20457;-78
2022/05/30 00:08:44;;;;;;;6.80;0.82;;;9.80;99.90;;;;;;4960046;28;20053;-78
2022/05/30 00:11:13;;;;;;;6.65;1.10;;;9.70;99.90;;;;;;4997871;28;20061;-80
2022/05/30 00:13:40;;;;;;;7.90;1.02;;;9.70;99.90;;;;;;4996166;28;20051;-80
2022/05/30 00:16:10;;;;;;;9.35;0.63;;;9.70;99.90;;;;;;4993796;28;20052;-78
2022/05/30 00:18:36;;;;;;;5.82;1.13;;;9.70;99.90;;;;;;4976024;28;20069;-80
2022/05/30 00:21:02;;;;;;;6.05;0.98;;;9.60;99.90;;;;;;4975700;28;20058;-79
2022/05/30 00:23:28;;;;;;;2.65;0.70;;;9.50;99.90;;;;;;4993034;28;20046;-78
2022/05/30 00:25:54;;;;;;;4.68;0.70;;;9.50;99.90;;;;;;4958892;28;20059;-80
2022/05/30 00:28:21;;;;;;;6.43;1.20;;;9.40;99.90;;;;;;4959354;28;20046;-80
2022/05/30 00:30:48;;;;;;;3.40;0.82;;;9.40;99.90;;;;;;4993741;28;20490;-81
2022/05/30 00:33:15;;;;;;;4.53;0.80;;;9.30;99.90;;;;;;4962247;28;20566;-79
2022/05/30 00:35:42;;;;;;;4.93;0.93;;;9.30;99.90;;;;;;5002123;28;20058;-81
2022/05/30 00:38:08;;;;;;;3.97;1.00;;;9.30;99.90;;;;;;4959819;28;20514;-82
2022/05/30 00:40:37;;;;;;;5.28;1.50;;;9.30;99.90;;;;;;4975313;28;20053;-81
2022/05/30 00:43:27;;;;;;;2.47;0.50;;;9.30;99.90;;;;;;4975068;28;20457;-81
2022/05/30 00:45:55;;;;;;;2.17;0.50;;;9.30;99.90;;;;;;4992837;28;20178;-76
2022/05/30 00:48:33;;;;;;;3.38;0.73;;;9.30;99.90;;;;;;4994122;28;20450;-78
2022/05/30 00:51:02;;;;;;;3.42;0.70;;;9.30;99.90;;;;;;4975322;28;20054;-78
2022/05/30 00:53:29;;;;;;;4.40;0.73;;;9.30;99.90;;;;;;4992382;28;20042;-77
2022/05/30 00:55:56;;;;;;;3.35;0.70;;;9.30;99.90;;;;;;4981502;28;20418;-78
2022/05/30 00:58:22;;;;;;;2.67;0.77;;;9.30;99.90;;;;;;4995163;28;20047;-77
2022/05/30 01:00:48;;;;;;;3.90;0.70;;;9.30;99.90;;;;;;4992128;28;20058;-77
2022/05/30 01:08:43;;;;;;;6.17;1.10;;;9.40;99.90;;;;;;4991914;28;20065;-78
2022/05/30 01:11:09;;;;;;;6.65;1.02;;;9.40;99.90;;;;;;4974405;28;20301;-78
2022/05/30 01:13:37;;;;;;;5.18;1.10;;;9.40;99.90;;;;;;4974442;28;20057;-77
2022/05/30 01:16:04;;;;;;;5.18;1.38;;;9.40;99.90;;;;;;4992152;28;20116;-78
2022/05/30 01:18:48;;;;;;;7.32;0.90;;;9.40;99.90;;;;;;4995127;28;20051;-77
2022/05/30 01:21:52;;;;;;;5.22;0.90;;;9.40;99.90;;;;;;4993927;28;20503;-77
2022/05/30 01:24:38;;;;;;;5.75;0.80;;;9.40;99.90;;;;;;4897995;29;20085;-78
2022/05/30 01:27:21;;;;;;;8.07;0.98;;;9.30;99.90;;;;;;4970457;28;20056;-78
2022/05/30 01:29:52;;;;;;;5.50;1.15;;;9.30;99.90;;;;;;4974411;28;20056;-79
2022/05/30 01:32:20;;;;;;;8.85;1.10;;;9.30;99.90;;;;;;4974339;28;20124;-78
2022/05/30 01:34:47;;;;;;;8.18;1.17;;;9.30;99.90;;;;;;4974471;28;20073;-77
2022/05/30 01:37:13;;;;;;;5.10;0.73;;;9.30;99.90;;;;;;4974310;28;20066;-79
2022/05/30 01:39:39;;;;;;;6.95;0.82;;;9.30;99.90;;;;;;4976654;28;20539;-78
2022/05/30 01:42:05;;;;;;;11.07;1.55;;;9.30;99.90;;;;;;4961173;28;20097;-79
2022/05/30 01:44:31;;;;;;;8.10;1.45;;;9.30;99.90;;;;;;4991370;28;20506;-79
2022/05/30 01:46:57;;;;;;;4.60;1.00;;;9.30;99.90;;;;;;4991915;28;20054;-78
2022/05/30 01:49:23;;;;;;;3.78;1.27;;;9.30;99.90;;;;;;4991518;28;20050;-78
2022/05/30 01:51:52;;;;;;;3.80;0.90;;;9.40;99.90;;;;;;4973448;28;20054;-78
2022/05/30 01:54:18;;;;;;;4.30;1.00;;;9.40;99.90;;;;;;4974250;28;20502;-79
2022/05/30 01:56:44;;;;;;;4.07;1.08;;;9.40;99.90;;;;;;4974209;28;20104;-79
2022/05/30 01:59:10;;;;;;;5.40;1.20;;;9.40;99.90;;;;;;4991664;28;20058;-79
2022/05/30 02:01:39;;;;;;;4.95;1.10;;;9.40;99.90;;;;;;4976022;28;20532;-79
2022/05/30 02:04:05;;;;;;;4.10;1.10;;;9.40;99.90;;;;;;4993875;28;20494;-79
2022/05/30 02:06:32;;;;;;;7.30;1.55;;;9.40;99.90;;;;;;4957663;28;20104;-78
2022/05/30 02:08:58;;;;;;;7.13;1.60;;;9.40;99.90;;;;;;4974616;28;20074;-78
2022/05/30 02:11:24;;;;;;;7.75;1.63;;;9.40;99.90;;;;;;4991478;28;20158;-79
2022/05/30 02:13:50;;;;;;;6.55;1.70;;;9.30;99.90;;;;;;4991433;28;20747;-79
2022/05/30 02:19:01;;;;;;;5.53;1.50;;;9.40;99.90;;;;;;4976927;28;20042;-79
2022/05/30 02:21:29;;;;;;;7.35;1.27;;;9.30;99.90;;;;;;4991433;28;20054;-77
2022/05/30 02:23:54;;;;;;;4.63;0.85;;;9.30;99.90;;;;;;4995659;28;20086;-77
2022/05/30 02:26:20;;;;;;;6.60;1.13;;;9.20;99.90;;;;;;4978637;28;20101;-80
2022/05/30 02:28:46;;;;;;;4.78;1.25;;;9.20;99.90;;;;;;4994635;28;20051;-79
2022/05/30 02:31:12;;;;;;;6.00;1.55;;;9.10;99.90;;;;;;4977535;28;20145;-79
2022/05/30 02:36:40;;;;;;;3.35;1.05;;;9.10;99.90;;;;;;4994752;28;20534;-80
2022/05/30 02:39:12;;;;;;;5.63;1.05;;;9.10;99.90;;;;;;4994844;28;20081;-81
2022/05/30 02:41:38;;;;;;;10.10;1.40;;;9.00;99.90;;;;;;4996044;28;20129;-79
2022/05/30 02:44:04;;;;;;;6.75;1.50;;;9.10;99.90;;;;;;4980724;28;20062;-79
2022/05/30 02:46:31;;;;;;;4.85;1.08;;;9.10;99.90;;;;;;4980410;28;20486;-80
2022/05/30 02:48:56;;;;;;;5.40;1.35;;;9.10;99.90;;;;;;4977065;28;20062;-81
2022/05/30 02:51:22;;;;;;;6.47;1.75;;;9.10;99.90;;;;;;4976404;28;20383;-80
2022/05/30 02:53:48;;;;;;;5.53;1.40;;;9.10;99.90;;;;;;4994501;28;20066;-79
2022/05/30 02:56:15;;;;;;;6.45;1.52;;;9.20;99.90;;;;;;4995004;28;20061;-80
2022/05/30 02:58:42;;;;;;;7.70;1.30;;;9.20;99.90;;;;;;4976665;28;20116;-80
2022/05/30 03:01:09;;;;;;;5.05;1.50;;;9.20;99.90;;;;;;4994634;28;20062;-80
2022/05/30 03:03:34;;;;;;;5.43;1.52;;;9.10;99.90;;;;;;4961003;28;20050;-79
2022/05/30 03:06:01;;;;;;;12.48;2.28;;;9.10;99.90;;;;;;4978360;28;20100;-81
2022/05/30 03:08:26;;;;;;;11.77;1.80;;;9.10;99.90;;;;;;4977426;28;20050;-80
2022/05/30 03:10:52;;;;;;;6.95;1.88;;;9.00;99.90;;;;;;4994312;28;20129;-79
2022/05/30 03:13:18;;;;;;;6.03;1.90;;;9.00;99.90;;;;;;4994227;28;20041;-80
2022/05/30 03:15:44;;;;;;;8.15;2.15;;;9.00;99.90;;;;;;4976776;28;20490;-80
2022/05/30 03:18:10;;;;;;;6.30;1.88;;;9.00;99.90;;;;;;4976631;28;20406;-80
2022/05/30 03:20:36;;;;;;;5.65;2.47;;;9.00;99.90;;;;;;4976260;28;20050;-80
2022/05/30 03:23:02;;;;;;;8.75;2.58;;;8.90;99.90;;;;;;4994200;28;20115;-80
2022/05/30 03:25:28;;;;;;;7.90;2.00;;;8.90;99.90;;;;;;4993802;28;20085;-79
2022/05/30 03:27:58;;;;;;;8.45;1.92;;;8.90;99.90;;;;;;4996693;28;20062;-79
2022/05/30 03:30:24;;;;;;;6.47;2.00;;;8.90;99.90;;;;;;4996900;28;20109;-80
2022/05/30 03:32:50;;;;;;;9.30;2.72;;;8.90;99.90;;;;;;4976753;28;20058;-79
2022/05/30 03:35:16;;;;;;;7.88;2.10;;;8.90;99.90;;;;;;4976337;28;20057;-80
2022/05/30 03:37:43;;;;;;;5.57;2.08;;;8.90;99.90;;;;;;4958894;28;20073;-79
2022/05/30 03:40:12;;;;;;;11.25;2.50;;;8.90;99.90;;;;;;4993374;28;20498;-80
2022/05/30 03:42:38;;;;;;;8.82;2.30;;;8.80;99.90;;;;;;4976930;28;20058;-78
2022/05/30 03:45:05;;;;;;;10.48;2.22;;;8.80;99.90;;;;;;4996440;28;20074;-79
2022/05/30 03:47:39;;;;;;;5.93;1.48;;;8.90;99.90;;;;;;4964110;28;20062;-80
2022/05/30 03:50:06;;;;;;;11.43;1.88;;;8.90;99.90;;;;;;4960110;28;20050;-80
2022/05/30 03:52:32;;;;;;;6.75;1.83;;;8.90;99.90;;;;;;4975785;28;20572;-80
2022/05/30 03:54:58;;;;;;;4.43;1.60;;;8.90;99.90;;;;;;4993321;28;20053;-79
2022/05/30 03:57:24;;;;;;;5.97;1.95;;;8.90;99.90;;;;;;4993269;28;20050;-79
2022/05/30 03:59:50;;;;;;;5.03;1.50;;;8.90;99.90;;;;;;4993242;28;20556;-80
2022/05/30 04:02:16;;;;;;;6.45;1.45;;;8.90;99.90;;;;;;4976032;28;20062;-77
2022/05/30 04:04:41;;;;;;;5.43;1.38;;;8.90;99.90;;;;;;4995513;28;20090;-79
2022/05/30 04:07:07;;;;;;;5.63;1.50;;;8.90;99.90;;;;;;4977081;28;20136;-80
2022/05/30 04:09:33;;;;;;;4.95;1.25;;;8.90;99.90;;;;;;4959897;28;20054;-79
2022/05/30 04:11:59;;;;;;;8.98;1.90;;;9.00;99.90;;;;;;4991588;28;20401;-79
2022/05/30 04:14:25;;;;;;;4.85;1.40;;;9.00;99.90;;;;;;4975384;28;20061;-80
2022/05/30 04:16:50;;;;;;;4.38;1.67;;;9.00;99.90;;;;;;4992565;28;20086;-77
2022/05/30 04:19:16;;;;;;;7.20;1.75;;;9.00;99.90;;;;;;4993379;28;20105;-79
2022/05/30 04:21:42;;;;;;;5.25;1.92;;;9.00;99.90;;;;;;4993117;28;20105;-79
2022/05/30 04:24:08;;;;;;;5.43;1.77;;;9.00;99.90;;;;;;4959517;28;20046;-79
2022/05/30 04:26:34;;;;;;;5.03;1.85;;;8.90;99.90;;;;;;4975819;28;20165;-80
2022/05/30 04:29:00;;;;;;;8.50;1.70;;;8.90;99.90;;;;;;4993101;28;20137;-78
2022/05/30 04:31:25;;;;;;;5.53;1.10;;;8.90;99.90;;;;;;4975146;28;20406;-78
2022/05/30 04:33:51;;;;;;;3.85;1.20;;;8.90;99.90;;;;;;4975765;28;20112;-77
2022/05/30 04:36:17;;;;;;;7.05;1.30;;;8.90;99.90;;;;;;4992638;28;20062;-77
2022/05/30 04:38:43;;;;;;;2.72;1.30;;;9.00;99.90;;;;;;4958728;28;20058;-78
2022/05/30 04:41:09;;;;;;;4.80;1.65;;;9.00;99.90;;;;;;4992318;28;20062;-79
2022/05/30 04:43:34;;;;;;;6.22;1.90;;;9.00;99.90;;;;;;4992563;28;20043;-78
2022/05/30 04:46:15;;;;;;;5.57;1.48;;;8.90;99.90;;;;;;4976404;28;20529;-78
2022/05/30 04:48:42;;;;;;;5.10;2.17;;;8.90;99.90;;;;;;4962320;28;20050;-79
2022/05/30 04:51:08;;;;;;;4.38;2.25;;;9.00;99.90;;;;;;4992230;28;20085;-77
2022/05/30 04:53:34;;;;;;;8.13;2.08;;;9.10;99.90;;;;;;4974717;28;20479;-79
2022/05/30 04:56:00;;;;;;;7.90;1.83;;;9.20;99.90;;;;;;4991823;28;20104;-79
2022/05/30 04:58:30;;;;;;;7.97;1.88;;;9.20;99.90;;;;;;4992133;28;20058;-78
2022/05/30 05:00:57;;;;;;;6.93;1.75;;;9.30;99.90;;;;;;4992039;28;20058;-78
2022/05/30 05:03:24;;;;;;;4.65;1.60;;;9.30;99.90;;;;;;4958358;28;20062;-78
2022/05/30 05:05:49;;;;;;;5.47;1.58;;;9.40;99.90;;;;;;4991966;28;20574;-79
2022/05/30 05:08:15;;;;;;;2.45;0.73;;;9.50;99.90;;;;;;4992350;28;20189;-79
2022/05/30 05:10:48;;;;;;;6.88;1.20;;;9.40;99.90;;;;;;4975619;28;20173;-79
2022/05/30 05:13:14;;;;;;;6.82;1.60;;;9.40;99.90;;;;;;4992159;28;20066;-78
2022/05/30 05:15:39;;;;;;;5.60;1.30;;;9.40;99.90;;;;;;4991810;28;20072;-78
2022/05/30 05:18:05;;;;;;;5.75;1.60;;;9.40;99.90;;;;;;4974239;28;20058;-79
2022/05/30 05:20:39;;;;;;;5.10;2.17;;;9.50;99.90;;;;;;4991867;28;20042;-79
2022/05/30 05:23:05;;;;;;;7.15;1.90;;;9.50;99.90;;;;;;4974501;28;20090;-78
2022/05/30 05:25:31;;;;;;;8.57;2.20;;;9.40;99.90;;;;;;4975462;28;20604;-78
2022/05/30 05:27:56;;;;;;;8.05;1.67;;;9.40;99.90;;;;;;4974534;28;20069;-78
2022/05/30 05:30:22;;;;;;;4.38;1.75;;;9.40;99.90;;;;;;4991572;28;20054;-80
2022/05/30 05:32:48;;;;;;;6.18;2.10;;;9.40;99.90;;;;;;4973916;28;20498;-78
2022/05/30 05:35:14;;;;;;;5.65;1.30;;;9.40;99.90;;;;;;4991464;28;20050;-79
2022/05/30 05:37:40;;;;;;;6.50;2.08;;;9.40;99.90;;;;;;4973820;28;20060;-79
2022/05/30 05:40:07;;;;;;;4.72;1.65;;;9.40;99.90;;;;;;4977050;28;20050;-80
2022/05/30 05:42:33;;;;;;;5.40;1.42;;;9.30;99.90;;;;;;4976721;28;20461;-79
2022/05/30 05:44:59;;;;;;;4.90;1.50;;;9.40;99.90;;;;;;4991308;28;20434;-79
2022/05/30 05:47:25;;;;;;;3.85;1.55;;;9.40;99.90;;;;;;4973297;28;20046;-80
2022/05/30 05:49:50;;;;;;;6.28;1.50;;;9.50;99.90;;;;;;4973640;28;20494;-79
2022/05/30 05:52:16;;;;;;;5.82;1.88;;;9.50;99.90;;;;;;4991639;28;20117;-79
2022/05/30 05:54:42;;;;;;;6.22;1.80;;;9.50;99.90;;;;;;4992344;28;20092;-78
2022/05/30 05:57:09;;;;;;;4.78;1.48;;;9.60;99.90;;;;;;4973875;28;20054;-78
2022/05/30 05:59:34;;;;;;;5.60;1.70;;;9.60;99.90;;;;;;4974859;28;20442;-79
2022/05/30 06:02:00;;;;;;;8.27;2.55;;;9.70;99.90;;;;;;4995429;28;20060;-79
2022/05/30 06:04:26;;;;;;;3.60;1.30;;;9.80;99.90;;;;;;4961740;28;20050;-78
2022/05/30 06:06:52;;;;;;;6.18;1.98;;;9.90;99.90;;;;;;4977587;28;20145;-79
2022/05/30 06:09:17;;;;;;;5.30;1.55;;;10.10;99.90;;;;;;4977695;28;20047;-78
2022/05/30 06:11:43;;;;;;;3.65;1.27;;;10.30;99.90;;;;;;4977821;28;20137;-78
2022/05/30 06:14:09;;;;;;;5.50;1.88;;;10.60;99.90;;;;;;4977297;28;20047;-78
2022/05/30 06:16:39;;;;;;;3.88;1.10;;;10.80;99.90;;;;;;4995052;28;20050;-75
2022/05/30 06:19:06;;;;;;;5.65;1.27;;;10.80;99.90;;;;;;4995549;28;20510;-76
2022/05/30 06:21:33;;;;;;;4.70;0.90;;;10.90;99.90;;;;;;4977789;28;20056;-77
2022/05/30 06:24:00;;;;;;;6.35;1.02;;;10.90;99.90;;;;;;4994720;28;20137;-74
2022/05/30 06:26:26;;;;;;;3.53;1.00;;;10.90;99.90;;;;;;4995271;28;20050;-74
2022/05/30 06:28:55;;;;;;;2.58;0.77;;;10.90;99.90;;;;;;5000262;28;20061;-74
2022/05/30 06:31:24;;;;;;;3.05;0.93;;;11.00;99.90;;;;;;4963263;28;20057;-75
2022/05/30 06:33:50;;;;;;;5.60;1.00;;;11.20;99.90;;;;;;4994633;28;20050;-73
2022/05/30 06:36:18;;;;;;;3.00;0.70;;;11.40;99.90;;;;;;4994603;28;20239;-73
2022/05/30 06:38:46;;;;;;;6.00;1.27;;;11.40;99.90;;;;;;4961027;28;20073;-73
2022/05/30 06:41:15;;;;;;;3.58;0.93;;;11.50;99.90;;;;;;4977551;28;20073;-72
2022/05/30 06:43:41;;;;;;;3.00;0.95;;;11.60;99.90;;;;;;4994998;28;20046;-71
2022/05/30 06:46:07;;;;;;;2.90;1.02;;;11.70;99.90;;;;;;4994372;28;20498;-73
2022/05/30 06:48:33;;;;;;;2.53;1.02;;;11.70;99.90;;;;;;4976840;28;20065;-73
2022/05/30 06:51:03;;;;;;;5.00;0.90;;;11.60;99.90;;;;;;4976662;28;20444;-75
2022/05/30 06:53:29;;;;;;;3.72;0.70;;;11.40;99.90;;;;;;4991786;28;20513;-75
2022/05/30 06:55:55;;;;;;;3.28;0.80;;;11.20;99.90;;;;;;4994676;28;20058;-80
2022/05/30 06:58:21;;;;;;;3.67;1.27;;;11.20;99.90;;;;;;4994579;28;20454;-77
2022/05/30 07:00:48;;;;;;;6.47;1.08;;;11.10;99.90;;;;;;4976016;28;20053;-77
2022/05/30 07:03:15;;;;;;;5.72;1.05;;;11.10;99.90;;;;;;4974303;28;20059;-79
2022/05/30 07:05:44;;;;;;;5.55;0.90;;;11.10;99.90;;;;;;4989776;28;20050;-78
2022/05/30 07:08:12;;;;;;;3.97;1.10;;;11.00;99.90;;;;;;4976319;28;20050;-76
2022/05/30 07:10:39;;;;;;;7.75;1.00;;;11.10;99.90;;;;;;4991479;28;20050;-77
2022/05/30 07:13:07;;;;;;;3.50;1.08;;;11.20;99.90;;;;;;4995467;28;20042;-77
2022/05/30 07:15:35;;;;;;;5.70;1.83;;;11.30;99.90;;;;;;4975335;28;20403;-83
2022/05/30 07:18:10;;;;;;;6.40;1.25;;;11.20;99.90;;;;;;4994985;28;20043;-76
2022/05/30 07:20:36;;;;;;;3.42;1.23;;;11.40;99.90;;;;;;4993652;28;20056;-80
2022/05/30 07:23:02;;;;;;;4.03;0.98;;;11.50;99.90;;;;;;4993428;28;20068;-78
2022/05/30 07:25:28;;;;;;;3.22;0.85;;;11.90;99.90;;;;;;4958627;28;20386;-78
2022/05/30 07:27:54;;;;;;;4.07;1.70;;;12.10;99.90;;;;;;4994302;28;20050;-78
2022/05/30 07:30:19;;;;;;;3.85;1.17;;;12.40;99.90;;;;;;4975568;28;20054;-78
2022/05/30 07:32:45;;;;;;;5.07;1.27;;;12.50;99.90;;;;;;4993223;28;20054;-78
2022/05/30 07:35:11;;;;;;;3.38;0.80;;;12.70;99.90;;;;;;4976247;28;20058;-79
2022/05/30 07:37:37;;;;;;;4.07;1.27;;;13.10;99.90;;;;;;4993513;28;20089;-80
2022/05/30 07:40:05;;;;;;;2.85;0.70;;;13.50;99.90;;;;;;4958255;28;20049;-76
2022/05/30 07:42:30;;;;;;;2.75;0.80;;;13.60;99.90;;;;;;4988379;28;20120;-76
2022/05/30 07:44:56;;;;;;;5.20;0.90;;;13.30;99.90;;;;;;4993775;28;20050;-77
2022/05/30 07:47:22;;;;;;;3.45;1.02;;;13.40;99.90;;;;;;4993167;28;20054;-82
2022/05/30 07:49:48;;;;;;;3.50;0.60;;;13.60;99.90;;;;;;4975914;28;20090;-82
2022/05/30 07:52:14;;;;;;;4.30;0.60;;;13.50;99.90;;;;;;4992848;28;20055;-82
2022/05/30 07:54:40;;;;;;;4.55;0.95;;;13.70;99.90;;;;;;4993567;28;20134;-81
2022/05/30 07:57:07;;;;;;;5.13;0.73;;;13.70;99.90;;;;;;4994981;28;20133;-81
2022/05/30 07:59:35;;;;;;;2.00;0.32;;;13.80;99.90;;;;;;5000007;28;20390;-82
2022/05/30 08:02:01;;;;;;;3.78;0.65;;;13.80;99.90;;;;;;4998181;28;20077;-79
2022/05/30 08:04:27;;;;;;;3.28;0.90;;;14.10;99.90;;;;;;4980912;28;20405;-79
2022/05/30 08:06:52;;;;;;;4.75;0.77;;;14.40;99.90;;;;;;4992653;28;20136;-78
2022/05/30 08:09:19;;;;;;;6.95;0.73;;;14.90;99.90;;;;;;4992557;28;20117;-79
2022/05/30 08:11:45;;;;;;;3.58;0.70;;;15.10;99.90;;;;;;4985747;28;20493;-78
2022/05/30 08:14:11;;;;;;;1.58;0.60;;;15.20;99.90;;;;;;5000686;28;20092;-79
2022/05/30 08:16:38;;;;;;;3.13;0.70;;;14.90;99.90;;;;;;4959449;28;20047;-81
2022/05/30 08:19:05;;;;;;;5.28;0.63;;;14.80;99.90;;;;;;4991053;28;20046;-78
2022/05/30 08:21:31;;;;;;;3.60;0.68;;;14.90;99.90;;;;;;4978837;28;20049;-79
2022/05/30 08:23:57;;;;;;;3.05;0.90;;;14.70;99.90;;;;;;4995400;28;20050;-75
2022/05/30 08:26:23;;;;;;;6.10;0.80;;;14.30;99.90;;;;;;4976016;28;20054;-80
2022/05/30 08:28:48;;;;;;;3.05;0.68;;;14.20;99.90;;;;;;4968629;28;20058;-79
2022/05/30 08:31:15;;;;;;;2.33;0.50;;;14.10;99.90;;;;;;4992970;28;20051;-81
2022/05/30 08:33:41;;;;;;;6.32;1.05;;;13.80;99.90;;;;;;4975370;28;20066;-77
2022/05/30 08:36:10;;;;;;;3.28;0.70;;;13.70;99.90;;;;;;4974936;28;20058;-81
2022/05/30 08:38:37;;;;;;;5.57;0.70;;;13.40;99.90;;;;;;4993459;28;20054;-76
2022/05/30 08:43:56;;;;;;;4.82;0.80;;;12.80;99.90;;;;;;4998317;28;20054;-78
2022/05/30 08:46:45;;;;;;;3.92;0.88;;;12.60;99.90;;;;;;4977104;28;20042;-76
2022/05/30 08:49:22;;;;;;;3.03;0.52;;;12.60;99.90;;;;;;5004020;28;20042;-78
2022/05/30 08:51:48;;;;;;;6.57;0.70;;;12.50;99.90;;;;;;4998534;28;20066;-80
2022/05/30 08:54:26;;;;;;;4.55;0.60;;;12.40;99.90;;;;;;4975568;28;20050;-79
2022/05/30 08:56:54;;;;;;;2.05;0.63;;;12.40;99.90;;;;;;4974562;28;20047;-80
2022/05/30 08:59:56;;;;;;;3.50;0.80;;;12.50;99.90;;;;;;4975628;28;20054;-79
2022/05/30 09:02:31;;;;;;;1.20;0.50;;;12.50;99.90;;;;;;4976758;28;20116;-77
2022/05/30 09:05:16;;;;;;;4.30;0.73;;;12.60;99.90;;;;;;4964467;28;20062;-78
2022/05/30 09:07:49;;;;;;;3.17;0.70;;;12.80;99.90;;;;;;4973087;28;20110;-79
2022/05/30 09:10:30;;;;;;;5.78;0.90;;;13.00;99.90;;;;;;4991592;28;20058;-82
2022/05/30 09:13:17;;;;;;;4.25;0.80;;;13.20;99.90;;;;;;4974657;28;20053;-76
2022/05/30 09:15:52;;;;;;;3.78;0.70;;;13.20;99.90;;;;;;4991626;28;20125;-77
2022/05/30 09:18:28;;;;;;;5.15;0.70;;;13.20;99.90;;;;;;5003608;28;20145;-78
2022/05/30 09:20:54;;;;;;;3.80;0.95;;;13.20;99.90;;;;;;4981486;28;20054;-79
2022/05/30 09:23:24;;;;;;;4.93;1.23;;;13.30;99.90;;;;;;5011209;28;20054;-81
2022/05/30 09:25:56;;;;;;;5.25;0.90;;;13.30;99.90;;;;;;4993814;28;20062;-85
2022/05/30 09:28:28;;;;;;;3.30;0.60;;;13.40;99.90;;;;;;4993766;28;20493;-81
2022/05/30 09:31:18;;;;;;;5.13;0.77;;;13.40;99.90;;;;;;5011535;28;20563;-77
2022/05/30 09:34:06;;;;;;;3.88;0.70;;;13.30;99.90;;;;;;5009924;28;20052;-79
2022/05/30 09:36:45;;;;;;;2.65;0.70;;;13.10;99.90;;;;;;4940836;28;20161;-85
2022/05/30 09:39:18;;;;;;;5.05;0.75;;;13.00;99.90;;;;;;4971820;28;20047;-80
2022/05/30 09:41:43;;;;;;;4.78;0.80;;;12.90;99.90;;;;;;4971523;28;20059;-79
2022/05/30 09:44:19;;;;;;;2.53;0.50;;;12.90;99.90;;;;;;4954053;28;20515;-82
2022/05/30 09:47:01;;;;;;;6.15;1.27;;;12.80;99.90;;;;;;4953839;28;20054;-83
2022/05/30 09:49:45;;;;;;;4.70;1.00;;;12.80;99.90;;;;;;4954292;28;20054;-80
2022/05/30 09:52:33;;;;;;;4.22;0.82;;;12.80;99.90;;;;;;4954455;28;20058;-76
2022/05/30 09:55:01;;;;;;;4.10;0.75;;;12.90;99.90;;;;;;4972257;28;20125;-82
2022/05/30 09:57:42;;;;;;;3.85;0.93;;;13.10;99.90;;;;;;4971769;28;20087;-81
2022/05/30 10:00:42;;;;;;;4.30;0.73;;;13.10;99.90;;;;;;4954278;28;20054;-94
2022/05/30 10:03:31;;;;;;;2.95;0.35;;;13.30;99.90;;;;;;4971207;28;20125;-78
2022/05/30 10:06:19;;;;;;;2.17;0.50;;;13.50;99.90;;;;;;4994536;28;20054;-74
2022/05/30 10:08:46;;;;;;;1.58;0.32;;;13.80;99.90;;;;;;4992269;28;20503;-82
2022/05/30 10:11:32;;;;;;;2.97;0.45;;;13.90;99.90;;;;;;4973576;28;20057;-77
2022/05/30 10:13:58;;;;;;;1.23;0.25;;;13.90;99.90;;;;;;4990736;28;20161;-79
2022/05/30 10:16:33;;;;;;;3.63;0.50;;;14.00;99.90;;;;;;4956866;28;20051;-78
2022/05/30 10:19:05;;;;;;;1.45;0.25;;;14.00;99.90;;;;;;4990276;28;20062;-80
2022/05/30 10:28:14;;;;;;;2.08;0.38;;;14.40;99.90;;;;;;4990346;28;20109;-78
2022/05/30 10:30:36;;;;;;;1.25;0.38;;;15.50;99.90;;;;;;4973114;28;20570;-76
2022/05/30 10:33:26;;;;;;;2.03;0.30;;;16.00;99.90;;;;;;4990396;28;20065;-78
2022/05/30 10:36:34;;;;;;;3.35;0.40;;;16.30;99.90;;;;;;4972857;28;20065;-78
2022/05/30 10:39:21;;;;;;;3.58;0.47;;;16.10;99.90;;;;;;4986113;28;20078;-80
2022/05/30 10:42:03;;;;;;;1.50;0.40;;;16.20;99.90;;;;;;4991887;28;20046;-80
2022/05/30 10:44:35;;;;;;;2.38;0.40;;;16.20;99.90;;;;;;4990929;28;20105;-79
2022/05/30 10:47:04;;;;;;;4.90;0.50;;;16.40;99.90;;;;;;4996525;28;20050;-81
2022/05/30 10:49:39;;;;;;;5.45;0.60;;;16.50;99.90;;;;;;4994758;28;20465;-82
2022/05/30 10:52:20;;;;;;;2.20;0.45;;;16.50;99.90;;;;;;4976067;28;20054;-80
2022/05/30 10:54:58;;;;;;;2.65;0.73;;;16.70;99.90;;;;;;4993951;28;20060;-80
2022/05/30 10:57:35;;;;;;;2.28;0.47;;;17.20;99.70;;;;;;4977754;28;20058;-80
2022/05/30 11:00:16;;;;;;;2.50;0.30;;;17.20;98.80;;;;;;4993511;28;20057;-79
2022/05/30 11:03:04;;;;;;;4.53;0.75;;;17.40;99.90;;;;;;4993840;28;20050;-79
2022/05/30 11:05:35;;;;;;;1.98;0.40;;;16.90;99.90;;;;;;4980060;28;20053;-77
2022/05/30 11:08:25;;;;;;;2.85;0.30;;;16.60;99.90;;;;;;4976758;28;20058;-78
2022/05/30 11:11:01;;;;;;;3.38;0.80;;;16.40;99.90;;;;;;4994383;28;20053;-82
2022/05/30 11:13:55;;;;;;;3.30;0.40;;;16.40;99.90;;;;;;4978388;28;20054;-80
2022/05/30 11:16:43;;;;;;;1.98;0.40;;;16.40;99.90;;;;;;4979473;28;20133;-77
2022/05/30 11:19:13;;;;;;;6.30;0.38;;;17.10;99.90;;;;;;4976532;28;20131;-77
2022/05/30 11:22:03;;;;;;;0.90;0.30;;;17.10;99.90;;;;;;4994071;28;20065;-81
2022/05/30 11:24:30;;;;;;;1.95;0.60;;;17.30;99.90;;;;;;4976181;28;20062;-82
2022/05/30 11:27:36;;;;;;;1.92;0.30;;;17.70;99.90;;;;;;4994232;28;20077;-79
2022/05/30 11:30:11;;;;;;;2.17;0.65;;;18.00;99.90;;;;;;4996134;28;20065;-81
2022/05/30 11:32:45;;;;;;;2.80;0.50;;;17.70;99.90;;;;;;4977993;28;20490;-80
2022/05/30 11:35:32;;;;;;;3.38;0.57;;;17.30;99.90;;;;;;4993575;28;20046;-79
2022/05/30 11:38:06;;;;;;;4.22;0.63;;;17.20;99.90;;;;;;4975988;28;20484;-77
2022/05/30 11:40:44;;;;;;;5.10;0.77;;;17.10;99.90;;;;;;4993629;28;20510;-76
2022/05/30 11:43:37;;;;;;;5.38;1.25;;;16.90;99.90;;;;;;4993899;28;20046;-74
2022/05/30 11:46:32;;;;;;;1.77;0.30;;;16.40;99.90;;;;;;4975957;28;20486;-78
2022/05/30 11:49:20;;;;;;;1.27;0.30;;;16.30;99.90;;;;;;4993372;28;20065;-76
2022/05/30 11:51:54;;;;;;;1.45;0.35;;;16.20;99.90;;;;;;4930474;28;20054;-79
2022/05/30 11:54:41;;;;;;;4.20;0.68;;;16.20;99.90;;;;;;4997550;28;20498;-80
2022/05/30 11:57:31;;;;;;;1.42;0.38;;;16.60;99.90;;;;;;4984514;28;20064;-79
2022/05/30 12:00:04;;;;;;;5.45;0.40;;;16.70;99.90;;;;;;4961604;28;20151;-79
2022/05/30 12:03:05;;;;;;;2.40;0.40;;;16.60;99.90;;;;;;4976771;28;20050;-80
2022/05/30 12:05:50;;;;;;;8.25;1.15;;;16.70;99.90;;;;;;4907128;28;20091;-82
2022/05/30 12:08:53;;;;;;;2.20;0.43;;;17.00;99.90;;;;;;4993752;28;20419;-79
2022/05/30 12:11:40;;;;;;;2.13;0.50;;;17.30;99.90;;;;;;4994394;28;20057;-81
2022/05/30 12:14:27;;;;;;;1.83;0.20;;;17.50;99.90;;;;;;4997673;28;20069;-82
2022/05/30 12:17:19;;;;;;;4.82;0.70;;;17.80;99.90;;;;;;4975753;28;20059;-82
2022/05/30 12:25:36;;;;;;;1.30;0.35;;;18.10;98.70;;;;;;4993106;28;20086;-82
2022/05/30 12:28:23;;;;;;;2.33;0.50;;;18.30;99.20;;;;;;4994396;28;20431;-81
2022/05/30 12:30:58;;;;;;;0.50;0.10;;;18.70;99.00;;;;;;4979004;28;20141;-82
2022/05/30 12:33:27;;;;;;;3.00;0.50;;;18.80;97.00;;;;;;4993395;28;20054;-82
2022/05/30 12:36:08;;;;;;;2.50;0.45;;;18.80;98.00;;;;;;4975335;28;20054;-82
2022/05/30 12:38:53;;;;;;;2.65;0.40;;;18.90;94.90;;;;;;4975347;28;20130;-80
2022/05/30 12:41:58;;;;;;;1.40;0.50;;;18.60;95.50;;;;;;4959206;28;20058;-82
2022/05/30 12:44:44;;;;;;;4.03;0.52;;;18.50;95.40;;;;;;4993542;28;20073;-82
2022/05/30 12:47:16;;;;;;;2.35;0.57;;;18.60;95.10;;;;;;4960880;28;20058;-82
2022/05/30 12:49:47;;;;;;;4.32;0.40;;;18.90;94.70;;;;;;4976478;28;20056;-81
2022/05/30 12:52:19;;;;;;;3.85;0.55;;;18.80;95.40;;;;;;4974858;28;20065;-81
2022/05/30 12:54:45;;;;;;;2.88;0.43;;;18.50;95.20;;;;;;4992237;28;20498;-82
2022/05/30 12:57:33;;;;;;;4.78;0.60;;;18.30;95.90;;;;;;4992158;28;20065;-83
2022/05/30 13:00:15;;;;;;;3.97;0.50;;;18.20;96.20;;;;;;4975559;28;20090;-82
2022/05/30 13:02:49;;;;;;;2.53;0.30;;;18.00;96.20;;;;;;4975437;28;20058;-82
2022/05/30 13:05:59;;;;;;;3.95;0.60;;;17.90;98.00;;;;;;4962593;28;20087;-79
2022/05/30 13:09:00;;;;;;;5.10;0.80;;;18.00;97.10;;;;;;4939191;28;20405;-77
2022/05/30 13:11:29;;;;;;;3.33;0.60;;;18.10;98.30;;;;;;4992114;28;20042;-78
2022/05/30 13:14:00;;;;;;;3.78;0.73;;;17.90;96.50;;;;;;4992559;28;20061;-83
2022/05/30 13:16:39;;;;;;;1.98;0.50;;;17.90;96.70;;;;;;4974650;28;20053;-80
2022/05/30 13:19:10;;;;;;;5.05;1.00;;;17.80;95.80;;;;;;4974892;28;20046;-79
2022/05/30 13:21:40;;;;;;;4.00;0.68;;;18.10;97.20;;;;;;4976388;28;20058;-79
2022/05/30 13:24:29;;;;;;;4.38;0.68;;;18.40;96.40;;;;;;4998470;28;20058;-81
2022/05/30 13:26:56;;;;;;;2.20;0.50;;;18.80;95.70;;;;;;4992652;28;20057;-82
2022/05/30 13:29:31;;;;;;;3.08;0.50;;;19.00;95.30;;;;;;4993325;28;20398;-79
2022/05/30 13:31:57;;;;;;;2.35;0.52;;;18.90;94.40;;;;;;4992680;28;20054;-80
2022/05/30 13:34:29;;;;;;;2.33;0.40;;;19.20;94.70;;;;;;4974477;28;20050;-80
2022/05/30 13:36:58;;;;;;;2.25;0.70;;;19.50;94.20;;;;;;4991425;28;20130;-80
2022/05/30 13:39:24;;;;;;;3.50;0.70;;;19.40;94.30;;;;;;4974360;28;20101;-82